createdAt,value
2018-08-22T00:04:09.345Z,100417.00
2018-08-22T00:09:12.546Z,100420.00
2018-08-22T00:14:15.517Z,100413.00
2018-08-22T00:19:18.504Z,100420.00
2018-08-22T00:24:21.475Z,100414.00
2018-08-22T00:29:24.388Z,100408.00
2018-08-22T00:34:27.335Z,100409.00
2018-08-22T00:39:30.303Z,100407.00
2018-08-22T00:44:33.252Z,100404.00
2018-08-22T00:49:36.378Z,100399.00
2018-08-22T00:54:39.493Z,100401.00
2018-08-22T00:59:42.711Z,100395.00
2018-08-22T01:04:45.641Z,100401.00
2018-08-22T01:09:48.811Z,100403.00
2018-08-22T01:14:52.220Z,100396.00
2018-08-22T01:19:55.112Z,100393.00
2018-08-22T01:24:58.224Z,100393.00
2018-08-22T01:30:01.214Z,100395.00
2018-08-22T01:35:04.562Z,100387.00
2018-08-22T01:40:07.669Z,100390.00
2018-08-22T01:45:10.646Z,100391.00
2018-08-22T01:50:13.748Z,100383.00
2018-08-22T01:55:16.754Z,100388.00
2018-08-22T02:00:19.682Z,100384.00
2018-08-22T02:05:23.090Z,100382.00
2018-08-22T02:10:26.290Z,100389.00
2018-08-22T02:15:29.408Z,100380.00
2018-08-22T02:20:32.622Z,100374.00
2018-08-22T02:25:35.649Z,100385.00
2018-08-22T02:30:38.835Z,100383.00
2018-08-22T02:35:41.789Z,100383.00
2018-08-22T02:40:44.748Z,100390.00
2018-08-22T02:45:47.881Z,100385.00
2018-08-22T02:50:51.148Z,100384.00
2018-08-22T02:55:54.119Z,100373.00
2018-08-22T03:00:57.078Z,100372.00
2018-08-22T03:06:00.212Z,100377.00
2018-08-22T03:11:03.473Z,100376.00
2018-08-22T03:16:06.744Z,100376.00
2018-08-22T03:21:09.704Z,100373.00
2018-08-22T03:26:12.740Z,100371.00
2018-08-22T03:31:15.651Z,100374.00
2018-08-22T03:36:18.617Z,100372.00
2018-08-22T03:41:21.816Z,100367.00
2018-08-22T03:46:24.837Z,100367.00
2018-08-22T03:51:27.768Z,100374.00
2018-08-22T03:56:31.252Z,100381.00
2018-08-22T04:01:34.212Z,100374.00
2018-08-22T04:06:37.448Z,100369.00
2018-08-22T04:11:40.647Z,100371.00
2018-08-22T04:16:43.608Z,100367.00
2018-08-22T04:21:46.767Z,100368.00
2018-08-22T04:26:50.025Z,100376.00
2018-08-22T04:31:52.977Z,100376.00
2018-08-22T04:36:56.179Z,100373.00
2018-08-22T04:41:59.155Z,100379.00
2018-08-22T04:47:02.132Z,100371.00
2018-08-22T04:52:05.318Z,100382.00
2018-08-22T04:57:08.290Z,100381.00
2018-08-22T05:02:11.336Z,100388.00
2018-08-22T05:07:14.515Z,100385.00
2018-08-22T05:12:17.724Z,100383.00
2018-08-22T05:17:20.763Z,100392.00
2018-08-22T05:22:23.939Z,100398.00
2018-08-22T05:27:27.166Z,100396.00
2018-08-22T05:32:30.453Z,100401.00
2018-08-22T05:37:33.404Z,100403.00
2018-08-22T05:42:36.365Z,100403.00
2018-08-22T05:47:39.648Z,100410.00
2018-08-22T05:52:42.779Z,100414.00
2018-08-22T05:57:45.991Z,100420.00
2018-08-22T06:02:49.089Z,100415.00
2018-08-22T06:07:52.104Z,100419.00
2018-08-22T06:12:55.311Z,100416.00
2018-08-22T06:17:58.300Z,100411.00
2018-08-22T06:23:01.438Z,100410.00
2018-08-22T06:28:04.484Z,100399.00
2018-08-22T06:33:07.837Z,100409.00
2018-08-22T06:38:10.749Z,100401.00
2018-08-22T06:43:14.072Z,100413.00
2018-08-22T06:48:17.081Z,100426.00
2018-08-22T06:53:20.028Z,100428.00
2018-08-22T06:58:23.270Z,100440.00
2018-08-22T07:03:26.257Z,100422.00
2018-08-22T07:08:29.212Z,100426.00
2018-08-22T07:13:32.396Z,100416.00
2018-08-22T07:18:35.489Z,100414.00
2018-08-22T07:23:39.187Z,100416.00
2018-08-22T07:28:42.408Z,100402.00
2018-08-22T07:33:45.392Z,100399.00
2018-08-22T07:38:49.009Z,100409.00
2018-08-22T07:43:52.116Z,100407.00
2018-08-22T07:48:55.285Z,100427.00
2018-08-22T07:53:58.360Z,100419.00
2018-08-22T07:59:10.371Z,100421.00
2018-08-22T08:04:13.348Z,100428.00
2018-08-22T08:09:16.464Z,100426.00
2018-08-22T08:14:19.712Z,100421.00
2018-08-22T08:19:22.903Z,100425.00
2018-08-22T08:24:25.890Z,100413.00
2018-08-22T08:29:28.852Z,100428.00
2018-08-22T08:34:32.009Z,100432.00
2018-08-22T08:39:35.192Z,100433.00
2018-08-22T08:44:38.057Z,100427.00
2018-08-22T08:49:41.107Z,100431.00
2018-08-22T08:54:44.303Z,100416.00
2018-08-22T08:59:47.342Z,100411.00
2018-08-22T09:04:50.252Z,100420.00
2018-08-22T09:09:53.315Z,100419.00
2018-08-22T09:19:59.516Z,100412.00
2018-08-22T09:25:02.708Z,100412.00
2018-08-22T09:30:06.426Z,100418.00
2018-08-22T09:35:09.556Z,100417.00
2018-08-22T09:40:12.668Z,100420.00
2018-08-22T09:45:15.735Z,100408.00
2018-08-22T09:50:18.741Z,100401.00
2018-08-22T09:55:21.715Z,100394.00
2018-08-22T10:00:30.481Z,100390.00
2018-08-22T10:05:33.565Z,100398.00
2018-08-22T10:10:36.688Z,100387.00
2018-08-22T10:15:39.883Z,100383.00
2018-08-22T10:20:43.088Z,100375.00
2018-08-22T10:25:46.187Z,100369.00
2018-08-22T10:30:49.101Z,100365.00
2018-08-22T10:35:52.072Z,100352.00
2018-08-22T10:40:55.245Z,100354.00
2018-08-22T10:45:58.452Z,100347.00
2018-08-22T10:51:01.660Z,100339.00
2018-08-22T10:56:04.857Z,100342.00
2018-08-22T11:01:08.066Z,100341.00
2018-08-22T11:06:11.052Z,100334.00
2018-08-22T11:11:13.970Z,100341.00
2018-08-22T11:16:17.181Z,100337.00
2018-08-22T11:21:37.475Z,100326.00
2018-08-22T11:26:57.860Z,100334.00
2018-08-22T11:32:18.301Z,100334.00
2018-08-22T11:37:21.341Z,100332.00
2018-08-22T11:42:24.533Z,100340.00
2018-08-22T11:47:27.800Z,100334.00
2018-08-22T11:52:30.819Z,100321.00
2018-08-22T11:57:33.780Z,100331.00
2018-08-22T12:02:36.749Z,100324.00
2018-08-22T12:07:39.689Z,100314.00
2018-08-22T12:12:42.635Z,100306.00
2018-08-22T12:17:45.726Z,100301.00
2018-08-22T12:22:48.977Z,100302.00
2018-08-22T12:27:52.038Z,100296.00
2018-08-22T12:32:55.101Z,100290.00
2018-08-22T12:37:58.520Z,100293.00
2018-08-22T12:43:01.591Z,100287.00
2018-08-22T12:48:05.242Z,100289.00
2018-08-22T12:53:08.223Z,100289.00
2018-08-22T12:58:11.337Z,100277.00
2018-08-22T13:03:14.418Z,100281.00
2018-08-22T13:08:17.747Z,100276.00
2018-08-22T13:13:20.960Z,100277.00
2018-08-22T13:18:23.981Z,100270.00
2018-08-22T13:23:27.173Z,100270.00
2018-08-22T13:28:31.022Z,100255.00
2018-08-22T13:33:34.736Z,100254.00
2018-08-22T13:38:38.047Z,100262.00
2018-08-22T13:43:41.509Z,100258.00
2018-08-22T13:48:44.856Z,100253.00
2018-08-22T13:53:48.062Z,100248.00
2018-08-22T13:58:51.380Z,100244.00
2018-08-22T14:03:54.361Z,100241.00
2018-08-22T14:08:57.376Z,100227.00
2018-08-22T14:14:00.613Z,100226.00
2018-08-22T14:19:03.661Z,100219.00
2018-08-22T14:24:06.919Z,100222.00
2018-08-22T14:29:10.116Z,100214.00
2018-08-22T14:34:13.215Z,100211.00
2018-08-22T14:39:16.357Z,100212.00
2018-08-22T14:44:19.462Z,100202.00
2018-08-22T14:49:22.662Z,100203.00
2018-08-22T14:54:26.211Z,100201.00
2018-08-22T14:59:29.219Z,100193.00
2018-08-22T15:04:32.280Z,100199.00
2018-08-22T15:09:35.297Z,100190.00
2018-08-22T15:14:38.425Z,100189.00
2018-08-22T15:19:41.422Z,100182.00
2018-08-22T15:24:44.388Z,100178.00
2018-08-22T15:29:47.646Z,100159.00
2018-08-22T15:34:54.602Z,100166.00
2018-08-22T15:39:57.801Z,100157.00
2018-08-22T15:45:00.765Z,100152.00
2018-08-22T15:50:04.973Z,100142.00
2018-08-22T15:55:11.755Z,100142.00
2018-08-22T16:00:34.915Z,100145.00
2018-08-22T16:05:39.243Z,100135.00
2018-08-22T16:10:42.464Z,100136.00
2018-08-22T16:15:47.455Z,100126.00
2018-08-22T16:20:59.436Z,100123.00
2018-08-22T16:26:04.445Z,100118.00
2018-08-22T16:31:07.507Z,100118.00
2018-08-22T16:36:15.108Z,100109.00
2018-08-22T16:41:18.368Z,100110.00
2018-08-22T16:46:21.638Z,100103.00
2018-08-22T16:51:25.193Z,100104.00
2018-08-22T16:56:30.315Z,100103.00
2018-08-22T17:01:33.590Z,100101.00
2018-08-22T17:06:37.002Z,100098.00
2018-08-22T17:11:40.250Z,100099.00
2018-08-22T17:16:44.444Z,100106.00
2018-08-22T17:21:47.657Z,100106.00
2018-08-22T17:26:50.880Z,100106.00
2018-08-22T17:32:03.668Z,100101.00
2018-08-22T17:37:09.097Z,100107.00
2018-08-22T17:42:12.372Z,100097.00
2018-08-22T17:47:15.570Z,100096.00
2018-08-22T17:52:18.661Z,100097.00
2018-08-22T17:57:24.841Z,100098.00
2018-08-22T18:02:28.000Z,100095.00
2018-08-22T18:07:31.209Z,100094.00
2018-08-22T18:12:34.243Z,100085.00
2018-08-22T18:17:37.302Z,100085.00
2018-08-22T18:22:41.317Z,100079.00
2018-08-22T18:27:45.132Z,100081.00
2018-08-22T18:32:48.142Z,100081.00
2018-08-22T18:37:51.196Z,100075.00
2018-08-22T18:42:58.855Z,100078.00
2018-08-22T18:48:03.932Z,100068.00
2018-08-22T18:53:06.974Z,100080.00
2018-08-22T18:58:10.102Z,100081.00
2018-08-22T19:03:13.231Z,100082.00
2018-08-22T19:08:17.365Z,100076.00
2018-08-22T19:13:22.525Z,100063.00
2018-08-22T19:18:25.837Z,100064.00
2018-08-22T19:23:29.442Z,100059.00
2018-08-22T19:28:52.548Z,100069.00
2018-08-22T19:33:56.052Z,100070.00
2018-08-22T19:38:59.265Z,100074.00
2018-08-22T19:44:03.271Z,100063.00
2018-08-22T19:49:06.543Z,100074.00
2018-08-22T19:54:09.908Z,100074.00
2018-08-22T19:59:13.918Z,100077.00
2018-08-22T20:04:17.095Z,100081.00
2018-08-22T20:09:20.812Z,100077.00
2018-08-22T20:14:24.188Z,100074.00
2018-08-22T20:19:31.789Z,100076.00
2018-08-22T20:24:34.978Z,100073.00
2018-08-22T20:29:38.200Z,100074.00
2018-08-22T20:34:41.535Z,100081.00
2018-08-22T20:39:44.999Z,100078.00
2018-08-22T20:44:48.249Z,100078.00
2018-08-22T20:49:52.240Z,100075.00
2018-08-22T20:55:00.954Z,100070.00
2018-08-22T21:00:05.864Z,100069.00
2018-08-22T21:05:09.160Z,100078.00
2018-08-22T21:10:12.893Z,100065.00
2018-08-22T21:15:16.211Z,100063.00
2018-08-22T21:20:22.048Z,100055.00
2018-08-22T21:25:25.247Z,100060.00
2018-08-22T21:30:28.411Z,100058.00
2018-08-22T21:35:31.717Z,100055.00
2018-08-22T21:40:35.009Z,100065.00
2018-08-22T21:45:38.194Z,100057.00
2018-08-22T21:50:42.231Z,100058.00
2018-08-22T21:55:49.148Z,100063.00
2018-08-22T22:00:52.449Z,100056.00
2018-08-22T22:05:57.475Z,100055.00
2018-08-22T22:11:03.868Z,100061.00
2018-08-22T22:16:07.628Z,100056.00
2018-08-22T22:21:13.516Z,100059.00
2018-08-22T22:26:17.803Z,100055.00
2018-08-22T22:31:20.803Z,100060.00
2018-08-22T22:36:24.048Z,100068.00
2018-08-22T22:41:28.966Z,100063.00
2018-08-22T22:46:31.911Z,100075.00
2018-08-22T22:51:35.464Z,100066.00
2018-08-22T22:56:38.604Z,100078.00
2018-08-22T23:01:41.827Z,100077.00
2018-08-22T23:06:44.793Z,100068.00
2018-08-22T23:11:47.856Z,100062.00
2018-08-22T23:16:51.019Z,100061.00
2018-08-22T23:21:55.144Z,100058.00
2018-08-22T23:26:58.116Z,100054.00
2018-08-22T23:32:01.130Z,100062.00
2018-08-22T23:37:04.239Z,100053.00
2018-08-22T23:42:07.965Z,100056.00
2018-08-22T23:47:11.216Z,100050.00
2018-08-22T23:52:14.182Z,100044.00
2018-08-22T23:57:21.175Z,100038.00
